createdAt,value
2019-04-21T00:01:16.541Z,3.93
2019-04-21T00:03:52.130Z,3.73
2019-04-21T00:06:43.730Z,3.70
2019-04-21T00:09:12.826Z,3.50
2019-04-21T00:11:40.908Z,3.63
2019-04-21T00:14:05.668Z,3.57
2019-04-21T00:16:33.098Z,3.87
2019-04-21T00:19:07.141Z,4.30
2019-04-21T00:21:39.588Z,4.17
2019-04-21T00:24:23.877Z,4.00
2019-04-21T00:27:03.806Z,3.83
2019-04-21T00:29:40.982Z,3.80
2019-04-21T00:31:58.980Z,4.33
2019-04-21T00:34:17.640Z,4.30
2019-04-21T00:37:01.217Z,4.10
2019-04-21T00:39:49.067Z,3.83
2019-04-21T00:42:09.815Z,3.40
2019-04-21T00:44:29.545Z,4.17
2019-04-21T00:47:05.422Z,4.00
2019-04-21T00:49:45.268Z,4.00
2019-04-21T00:52:29.129Z,4.40
2019-04-21T00:55:05.992Z,3.90
2019-04-21T00:57:35.599Z,3.73
2019-04-21T00:59:59.166Z,4.30
2019-04-21T01:02:34.989Z,3.83
2019-04-21T01:05:04.815Z,3.90
2019-04-21T01:07:31.421Z,3.83
2019-04-21T01:09:53.932Z,4.03
2019-04-21T01:12:37.713Z,4.47
2019-04-21T01:15:14.019Z,3.70
2019-04-21T01:17:35.763Z,3.43
2019-04-21T01:20:01.419Z,3.40
2019-04-21T01:22:18.427Z,3.60
2019-04-21T01:24:57.969Z,4.07
2019-04-21T01:27:39.400Z,4.10
2019-04-21T01:30:14.312Z,3.77
2019-04-21T01:32:43.912Z,3.97
2019-04-21T01:35:14.700Z,4.10
2019-04-21T01:37:52.792Z,3.67
2019-04-21T01:40:26.060Z,4.20
2019-04-21T01:42:45.861Z,4.20
2019-04-21T01:45:18.905Z,4.00
2019-04-21T01:47:49.095Z,4.00
2019-04-21T01:50:14.036Z,4.13
2019-04-21T01:52:55.876Z,4.40
2019-04-21T01:55:30.760Z,4.40
2019-04-21T01:58:00.425Z,4.27
2019-04-21T02:00:36.794Z,3.97
2019-04-21T02:03:28.615Z,3.80
2019-04-21T02:05:43.936Z,4.27
2019-04-21T02:08:06.601Z,4.20
2019-04-21T02:10:46.283Z,3.93
2019-04-21T02:13:10.282Z,4.13
2019-04-21T02:15:42.393Z,4.23
2019-04-21T02:18:12.075Z,4.10
2019-04-21T02:20:33.941Z,4.30
2019-04-21T02:25:47.129Z,4.47
2019-04-21T02:28:20.737Z,4.00
2019-04-21T02:31:04.872Z,3.80
2019-04-21T02:36:15.571Z,4.43
2019-04-21T02:38:39.218Z,3.53
2019-04-21T02:41:01.493Z,3.97
2019-04-21T02:43:38.422Z,4.00
2019-04-21T02:48:43.439Z,4.60
2019-04-21T02:51:10.473Z,4.07
2019-04-21T02:58:52.693Z,4.83
2019-04-21T03:06:59.500Z,3.90
2019-04-21T03:09:24.104Z,4.17
2019-04-21T03:11:56.441Z,4.67
2019-04-21T03:14:40.830Z,4.50
2019-04-21T03:16:46.963Z,4.67
2019-04-21T03:19:32.280Z,4.07
2019-04-21T03:22:02.602Z,4.67
2019-04-21T03:24:29.505Z,4.50
2019-04-21T03:27:09.597Z,3.97
2019-04-21T03:29:48.308Z,4.60
2019-04-21T03:34:57.767Z,4.67
2019-04-21T03:42:19.579Z,4.37
2019-04-21T03:44:42.232Z,3.87
2019-04-21T03:47:15.424Z,4.47
2019-04-21T03:52:28.018Z,4.23
2019-04-21T03:55:41.408Z,4.77
2019-04-21T04:03:21.019Z,4.63
2019-04-21T04:05:59.494Z,5.43
2019-04-21T04:08:44.732Z,4.37
2019-04-21T04:11:12.284Z,4.87
2019-04-21T04:16:05.958Z,5.90
2019-04-21T04:18:55.719Z,6.17
2019-04-21T04:21:12.334Z,6.73
2019-04-21T04:23:45.642Z,5.60
2019-04-21T04:26:13.334Z,6.17
2019-04-21T04:29:08.870Z,6.50
2019-04-21T04:31:28.973Z,6.17
2019-04-21T04:34:10.056Z,6.60
2019-04-21T04:36:23.903Z,7.13
2019-04-21T04:38:59.524Z,6.90
2019-04-21T04:41:35.194Z,6.57
2019-04-21T04:44:07.151Z,6.20
2019-04-21T04:46:38.697Z,5.67
2019-04-21T04:49:01.814Z,5.47
2019-04-21T04:51:48.076Z,6.60
2019-04-21T04:53:58.699Z,5.60
2019-04-21T04:56:43.473Z,5.37
2019-04-21T05:01:42.792Z,5.30
2019-04-21T05:04:06.350Z,5.40
2019-04-21T05:09:15.431Z,4.80
2019-04-21T05:14:23.104Z,4.70
2019-04-21T05:21:40.557Z,3.70
2019-04-21T05:23:59.851Z,4.43
2019-04-21T05:26:34.418Z,4.67
2019-04-21T05:29:00.674Z,4.23
2019-04-21T05:31:46.371Z,4.20
2019-04-21T05:34:18.498Z,4.23
2019-04-21T05:36:45.913Z,5.20
2019-04-21T05:39:20.341Z,5.20
2019-04-21T05:41:42.959Z,5.10
2019-04-21T05:44:37.961Z,5.50
2019-04-21T05:47:09.631Z,4.40
2019-04-21T05:49:35.411Z,6.97
2019-04-21T05:51:58.434Z,6.83
2019-04-21T05:54:44.120Z,5.53
2019-04-21T05:57:08.639Z,5.53
2019-04-21T05:59:37.889Z,5.43
2019-04-21T06:02:18.572Z,4.33
2019-04-21T06:07:21.264Z,4.33
2019-04-21T06:09:53.863Z,4.67
2019-04-21T06:12:14.598Z,4.70
2019-04-21T06:14:48.255Z,5.27
2019-04-21T06:17:25.024Z,4.90
2019-04-21T06:22:21.771Z,6.57
2019-04-21T06:27:28.499Z,7.30
2019-04-21T06:29:55.900Z,7.30
2019-04-21T06:32:38.151Z,8.90
2019-04-21T06:42:35.310Z,9.93
2019-04-21T06:45:25.449Z,10.27
2019-04-21T06:47:42.165Z,9.73
2019-04-21T06:50:00.159Z,11.47
2019-04-21T06:55:09.903Z,11.60
2019-04-21T06:57:47.936Z,15.17
2019-04-21T07:00:06.170Z,15.90
2019-04-21T07:05:15.489Z,17.80
2019-04-21T07:07:51.751Z,16.40
2019-04-21T07:10:16.901Z,15.37
2019-04-21T07:12:47.932Z,14.97
2019-04-21T07:15:16.815Z,14.87
2019-04-21T07:17:45.434Z,13.50
2019-04-21T07:20:17.197Z,12.50
2019-04-21T07:22:56.876Z,11.77
2019-04-21T07:25:27.986Z,11.30
2019-04-21T07:27:59.292Z,11.93
2019-04-21T07:33:19.012Z,11.50
2019-04-21T07:35:54.095Z,8.63
2019-04-21T07:38:04.271Z,8.87
2019-04-21T07:40:36.414Z,8.90
2019-04-21T07:43:03.785Z,8.27
2019-04-21T07:45:33.491Z,8.90
2019-04-21T07:48:14.090Z,9.63
2019-04-21T07:50:53.878Z,9.43
2019-04-21T07:53:27.760Z,8.00
2019-04-21T07:55:34.017Z,9.23
2019-04-21T07:58:21.336Z,9.20
2019-04-21T08:00:56.290Z,8.83
2019-04-21T08:03:31.928Z,7.73
2019-04-21T08:05:59.188Z,10.37
2019-04-21T08:08:31.445Z,9.33
2019-04-21T08:10:56.791Z,9.17
2019-04-21T08:13:34.235Z,9.13
2019-04-21T08:15:58.224Z,9.10
2019-04-21T08:18:33.682Z,8.93
2019-04-21T08:21:00.814Z,8.37
2019-04-21T08:23:40.256Z,9.20
2019-04-21T08:28:42.667Z,9.53
2019-04-21T08:31:18.412Z,9.97
2019-04-21T08:33:50.330Z,10.43
2019-04-21T08:36:20.752Z,10.27
2019-04-21T08:41:12.276Z,9.63
2019-04-21T08:43:44.637Z,9.60
2019-04-21T08:46:20.226Z,9.80
2019-04-21T08:48:52.748Z,10.30
2019-04-21T08:51:33.400Z,10.13
2019-04-21T08:53:53.664Z,9.80
2019-04-21T08:56:25.678Z,9.30
2019-04-21T09:01:57.292Z,8.83
2019-04-21T09:04:26.992Z,7.13
2019-04-21T09:07:04.844Z,7.10
2019-04-21T09:09:28.772Z,6.53
2019-04-21T09:12:01.661Z,6.53
2019-04-21T09:14:39.446Z,5.87
2019-04-21T09:17:00.099Z,7.00
2019-04-21T09:19:45.646Z,6.70
2019-04-21T09:22:05.882Z,7.00
2019-04-21T09:24:42.830Z,7.97
2019-04-21T09:27:08.494Z,8.47
2019-04-21T09:29:32.489Z,8.63
2019-04-21T09:31:59.507Z,9.57
2019-04-21T09:34:36.408Z,8.03
2019-04-21T09:37:16.446Z,8.67
2019-04-21T09:39:38.684Z,8.53
2019-04-21T09:42:05.084Z,8.60
2019-04-21T09:44:40.346Z,7.53
2019-04-21T09:47:07.432Z,9.10
2019-04-21T09:49:38.094Z,7.73
2019-04-21T09:52:16.978Z,8.83
2019-04-21T09:54:48.254Z,7.73
2019-04-21T09:57:24.284Z,7.47
2019-04-21T09:59:49.057Z,7.47
2019-04-21T10:02:20.060Z,8.30
2019-04-21T10:04:46.488Z,8.93
2019-04-21T10:07:25.792Z,8.53
2019-04-21T10:09:47.905Z,7.50
2019-04-21T10:12:17.424Z,6.23
2019-04-21T10:14:47.366Z,6.57
2019-04-21T10:17:19.591Z,6.42
2019-04-21T10:19:50.565Z,6.08
2019-04-21T10:22:21.116Z,6.53
2019-04-21T10:24:52.190Z,7.23
2019-04-21T10:27:23.118Z,5.87
2019-04-21T10:29:53.849Z,6.00
2019-04-21T10:32:25.240Z,5.75
2019-04-21T10:34:55.121Z,5.25
2019-04-21T10:37:39.120Z,5.37
2019-04-21T10:39:58.255Z,5.12
2019-04-21T10:42:28.847Z,4.97
2019-04-21T10:44:58.944Z,4.78
2019-04-21T10:47:29.328Z,5.22
2019-04-21T10:50:02.799Z,5.28
2019-04-21T10:52:51.008Z,6.00
2019-04-21T10:55:40.252Z,5.83
2019-04-21T10:58:06.973Z,5.10
2019-04-21T11:00:37.199Z,5.65
2019-04-21T11:03:24.865Z,6.40
2019-04-21T11:05:57.225Z,6.17
2019-04-21T11:08:32.318Z,5.78
2019-04-21T11:10:59.020Z,5.87
2019-04-21T11:13:28.750Z,5.45
2019-04-21T11:15:59.299Z,5.05
2019-04-21T11:18:31.688Z,5.75
2019-04-21T11:21:02.815Z,6.22
2019-04-21T11:23:33.199Z,5.42
2019-04-21T11:26:04.411Z,5.42
2019-04-21T11:28:34.621Z,5.53
2019-04-21T11:31:04.858Z,5.40
2019-04-21T11:33:35.611Z,5.85
2019-04-21T11:36:07.207Z,5.67
2019-04-21T11:39:10.991Z,4.83
2019-04-21T11:41:25.726Z,5.65
2019-04-21T11:43:57.088Z,5.33
2019-04-21T11:46:26.980Z,5.55
2019-04-21T11:48:58.007Z,5.30
2019-04-21T11:51:28.896Z,5.47
2019-04-21T11:53:59.168Z,5.78
2019-04-21T11:56:28.808Z,5.22
2019-04-21T11:58:59.525Z,4.92
2019-04-21T12:01:31.885Z,5.10
2019-04-21T12:04:03.760Z,5.50
2019-04-21T12:06:40.948Z,4.80
2019-04-21T12:09:09.958Z,5.03
2019-04-21T12:11:39.491Z,5.42
2019-04-21T12:14:12.062Z,5.60
2019-04-21T12:16:43.306Z,4.62
2019-04-21T12:19:12.904Z,4.58
2019-04-21T12:21:53.257Z,5.22
2019-04-21T12:24:19.558Z,4.80
2019-04-21T12:26:49.761Z,4.20
2019-04-21T12:29:20.849Z,4.50
2019-04-21T12:32:05.539Z,4.30
2019-04-21T12:34:39.749Z,4.70
2019-04-21T12:37:11.017Z,4.55
2019-04-21T12:39:46.259Z,4.15
2019-04-21T12:42:16.578Z,4.45
2019-04-21T12:44:49.933Z,4.25
2019-04-21T12:47:32.102Z,4.12
2019-04-21T12:53:03.787Z,4.08
2019-04-21T12:55:42.791Z,4.50
2019-04-21T12:58:29.101Z,4.05
2019-04-21T13:01:00.982Z,4.28
2019-04-21T13:03:52.076Z,4.70
2019-04-21T13:06:23.474Z,4.42
2019-04-21T13:09:03.415Z,4.47
2019-04-21T13:11:37.188Z,4.55
2019-04-21T13:14:25.842Z,5.20
2019-04-21T13:17:01.347Z,4.08
2019-04-21T13:19:53.616Z,4.00
2019-04-21T13:22:30.175Z,3.90
2019-04-21T13:25:05.432Z,3.77
2019-04-21T13:27:34.969Z,4.37
2019-04-21T13:33:21.062Z,3.75
2019-04-21T13:35:59.853Z,4.03
2019-04-21T13:41:48.327Z,3.80
2019-04-21T13:47:12.559Z,3.87
2019-04-21T13:52:44.765Z,4.22
2019-04-21T14:01:11.809Z,4.15
2019-04-21T14:03:47.289Z,4.08
2019-04-21T14:06:24.656Z,4.78
2019-04-21T14:12:05.401Z,3.98
2019-04-21T14:17:43.178Z,3.85
2019-04-21T14:20:17.391Z,3.90
2019-04-21T14:23:10.096Z,3.72
2019-04-21T14:28:36.642Z,3.45
2019-04-21T14:34:08.030Z,3.85
2019-04-21T14:36:54.991Z,3.70
2019-04-21T14:39:26.272Z,3.90
2019-04-21T14:44:52.047Z,3.70
2019-04-21T14:48:00.882Z,3.95
2019-04-21T14:50:48.346Z,3.75
2019-04-21T14:56:15.620Z,3.45
2019-04-21T14:58:59.026Z,3.85
2019-04-21T15:01:36.002Z,3.55
2019-04-21T15:04:08.008Z,3.72
2019-04-21T15:06:51.748Z,3.60
2019-04-21T15:09:21.219Z,3.62
2019-04-21T15:17:47.439Z,3.90
2019-04-21T15:20:18.197Z,4.12
2019-04-21T15:22:48.313Z,3.50
2019-04-21T15:25:43.969Z,4.10
2019-04-21T15:31:08.370Z,3.45
2019-04-21T15:33:39.446Z,3.33
2019-04-21T15:36:11.444Z,3.70
2019-04-21T15:38:41.396Z,3.50
2019-04-21T15:41:14.315Z,4.10
2019-04-21T15:43:48.715Z,3.30
2019-04-21T15:46:26.768Z,3.80
2019-04-21T15:52:05.167Z,3.60
2019-04-21T15:54:40.906Z,3.27
2019-04-21T15:57:33.496Z,3.58
2019-04-21T16:00:27.366Z,3.67
2019-04-21T16:03:06.660Z,4.72
2019-04-21T16:05:40.638Z,3.05
2019-04-21T16:08:16.416Z,3.80
2019-04-21T16:13:47.887Z,3.17
2019-04-21T16:16:25.499Z,3.02
2019-04-21T16:19:04.255Z,3.42
2019-04-21T16:21:42.512Z,3.77
2019-04-21T16:24:12.242Z,3.60
2019-04-21T16:27:10.311Z,3.80
2019-04-21T16:29:41.481Z,3.62
2019-04-21T16:32:12.081Z,3.55
2019-04-21T16:34:50.748Z,3.60
2019-04-21T16:37:17.409Z,3.60
2019-04-21T16:39:47.416Z,3.55
2019-04-21T16:42:24.512Z,3.70
2019-04-21T16:44:56.684Z,4.17
2019-04-21T16:47:26.589Z,3.87
2019-04-21T16:50:07.847Z,3.87
2019-04-21T16:55:51.161Z,3.10
2019-04-21T16:58:34.728Z,3.70
2019-04-21T17:01:13.984Z,3.52
2019-04-21T17:03:42.307Z,4.00
2019-04-21T17:06:13.232Z,3.65
2019-04-21T17:08:43.047Z,3.92
2019-04-21T17:11:19.408Z,3.50
2019-04-21T17:13:43.748Z,4.25
2019-04-21T17:16:44.778Z,4.15
2019-04-21T17:18:58.788Z,4.47
2019-04-21T17:21:16.637Z,3.37
2019-04-21T17:23:46.425Z,3.85
2019-04-21T17:26:17.149Z,3.95
2019-04-21T17:28:48.805Z,3.98
2019-04-21T17:31:18.253Z,3.70
2019-04-21T17:33:51.920Z,3.70
2019-04-21T17:36:19.150Z,3.80
2019-04-21T17:38:48.414Z,3.87
2019-04-21T17:41:29.001Z,3.77
2019-04-21T17:43:49.952Z,3.83
2019-04-21T17:46:22.653Z,4.33
2019-04-21T17:48:50.433Z,3.77
2019-04-21T17:51:35.150Z,3.92
2019-04-21T17:54:17.507Z,4.78
2019-04-21T17:57:07.521Z,5.22
2019-04-21T17:59:44.757Z,4.40
2019-04-21T18:02:04.099Z,5.65
2019-04-21T18:04:39.530Z,4.70
2019-04-21T18:07:04.816Z,4.25
2019-04-21T18:09:51.056Z,3.95
2019-04-21T18:12:11.871Z,4.47
2019-04-21T18:14:30.591Z,4.67
2019-04-21T18:17:00.435Z,4.45
2019-04-21T18:19:34.765Z,4.37
2019-04-21T18:22:06.471Z,4.87
2019-04-21T18:24:47.504Z,4.55
2019-04-21T18:27:08.940Z,4.37
2019-04-21T18:29:37.301Z,5.15
2019-04-21T18:32:08.320Z,4.53
2019-04-21T18:34:52.374Z,4.40
2019-04-21T18:37:26.210Z,4.80
2019-04-21T18:40:03.779Z,4.40
2019-04-21T18:42:47.901Z,6.40
2019-04-21T18:48:05.155Z,3.77
2019-04-21T18:50:48.838Z,3.42
2019-04-21T18:53:32.442Z,4.83
2019-04-21T18:55:51.447Z,4.27
2019-04-21T18:58:18.139Z,5.10
2019-04-21T19:00:48.815Z,4.57
2019-04-21T19:03:28.178Z,3.70
2019-04-21T19:05:56.657Z,4.10
2019-04-21T19:08:38.743Z,4.07
2019-04-21T19:11:16.638Z,3.97
2019-04-21T19:14:17.553Z,4.30
2019-04-21T19:16:53.922Z,4.03
2019-04-21T19:21:33.243Z,5.30
2019-04-21T19:24:17.947Z,4.00
2019-04-21T19:26:57.214Z,4.70
2019-04-21T19:29:24.126Z,4.57
2019-04-21T19:31:50.656Z,4.80
2019-04-21T19:34:15.382Z,4.87
2019-04-21T19:36:46.743Z,4.10
2019-04-21T19:39:16.165Z,4.20
2019-04-21T19:41:56.177Z,3.97
2019-04-21T19:44:30.224Z,4.00
2019-04-21T19:47:04.754Z,4.20
2019-04-21T19:49:40.051Z,4.50
2019-04-21T19:51:58.724Z,4.10
2019-04-21T19:54:31.605Z,4.20
2019-04-21T19:56:55.390Z,4.43
2019-04-21T19:59:34.635Z,3.73
2019-04-21T20:02:00.283Z,4.03
2019-04-21T20:04:36.859Z,4.17
2019-04-21T20:07:22.120Z,4.40
2019-04-21T20:09:48.865Z,4.70
2019-04-21T20:12:33.019Z,5.03
2019-04-21T20:14:59.368Z,4.60
2019-04-21T20:17:31.108Z,5.30
2019-04-21T20:19:44.545Z,4.83
2019-04-21T20:22:15.145Z,3.73
2019-04-21T20:24:53.868Z,5.40
2019-04-21T20:27:36.231Z,5.57
2019-04-21T20:30:05.660Z,4.17
2019-04-21T20:32:46.060Z,4.50
2019-04-21T20:35:25.036Z,4.70
2019-04-21T20:37:41.785Z,4.10
2019-04-21T20:40:05.067Z,3.90
2019-04-21T20:42:49.797Z,4.60
2019-04-21T20:45:34.953Z,4.67
2019-04-21T20:47:44.738Z,4.33
2019-04-21T20:50:31.080Z,4.27
2019-04-21T20:53:04.785Z,4.47
2019-04-21T20:55:28.280Z,4.43
2019-04-21T20:58:01.483Z,4.23
2019-04-21T21:00:46.143Z,4.20
2019-04-21T21:03:12.058Z,4.97
2019-04-21T21:05:38.600Z,3.97
2019-04-21T21:08:18.008Z,4.17
2019-04-21T21:10:38.752Z,4.30
2019-04-21T21:13:22.204Z,4.37
2019-04-21T21:16:01.181Z,4.17
2019-04-21T21:18:27.389Z,3.70
2019-04-21T21:20:48.365Z,4.23
2019-04-21T21:23:12.667Z,4.07
2019-04-21T21:25:57.211Z,4.17
2019-04-21T21:28:24.222Z,3.93
2019-04-21T21:30:55.838Z,4.50
2019-04-21T21:33:45.690Z,4.83
2019-04-21T21:36:06.445Z,3.80
2019-04-21T21:38:38.372Z,4.77
2019-04-21T21:40:59.918Z,3.90
2019-04-21T21:43:24.706Z,4.07
2019-04-21T21:45:56.174Z,4.17
2019-04-21T21:48:38.247Z,4.00
2019-04-21T21:51:03.848Z,4.37
2019-04-21T21:53:28.889Z,4.33
2019-04-21T21:55:56.294Z,9.47
2019-04-21T21:58:31.682Z,4.90
2019-04-21T22:01:02.284Z,4.57
2019-04-21T22:03:33.280Z,4.97
2019-04-21T22:06:04.955Z,5.17
2019-04-21T22:08:32.353Z,4.87
2019-04-21T22:11:03.419Z,4.53
2019-04-21T22:13:43.622Z,4.83
2019-04-21T22:16:10.708Z,4.93
2019-04-21T22:19:03.578Z,4.70
2019-04-21T22:21:18.178Z,4.70
2019-04-21T22:23:51.594Z,4.57
2019-04-21T22:26:11.433Z,4.60
2019-04-21T22:28:40.891Z,4.90
2019-04-21T22:31:16.387Z,4.60
2019-04-21T22:33:48.353Z,3.87
2019-04-21T22:36:26.747Z,4.53
2019-04-21T22:39:09.235Z,4.80
2019-04-21T22:41:28.244Z,4.63
2019-04-21T22:43:52.286Z,5.80
2019-04-21T22:46:22.240Z,8.90
2019-04-21T22:48:58.426Z,7.87
2019-04-21T22:51:33.551Z,4.60
2019-04-21T22:53:57.603Z,4.47
2019-04-21T22:56:31.358Z,4.80
2019-04-21T22:58:57.388Z,4.30
2019-04-21T23:01:35.367Z,4.37
2019-04-21T23:04:02.819Z,4.20
2019-04-21T23:06:33.720Z,4.53
2019-04-21T23:09:02.026Z,4.43
2019-04-21T23:11:38.679Z,3.60
2019-04-21T23:14:07.735Z,3.90
2019-04-21T23:16:37.827Z,3.80
2019-04-21T23:19:23.824Z,3.70
2019-04-21T23:22:01.087Z,3.63
2019-04-21T23:24:34.571Z,3.33
2019-04-21T23:26:54.464Z,3.63
2019-04-21T23:29:43.695Z,4.00
2019-04-21T23:32:02.973Z,3.43
2019-04-21T23:34:23.683Z,3.20
2019-04-21T23:36:57.639Z,3.60
2019-04-21T23:39:23.350Z,3.20
2019-04-21T23:41:51.653Z,3.30
2019-04-21T23:44:22.129Z,3.70
2019-04-21T23:46:58.612Z,3.20
2019-04-21T23:49:38.394Z,3.57
2019-04-21T23:52:00.833Z,3.43
2019-04-21T23:54:25.230Z,3.37
2019-04-21T23:56:55.905Z,3.40
2019-04-21T23:59:26.723Z,3.27
